Latest Coastal Weather Observations for Cape Nelson

IDS60701

Issued at 2:31 pm CDT Thursday 8 December 2016 (issued every 10 minutes, with the page automatically refreshed every 10 minutes)

About coastal observations | Map of coastal stations | Coastal observations for SA | Marine services | Other Formats
Station Details ID: 090184 Name: CAPE NELSON LIGHTHOUSE Lat: -38.43 Lon: 141.54 Height: 45.4 m
Data from the previous 72 hours. | See also: Recent months at Cape Nelson
Date/Time
CDT
Temp
°C
Wind Pressure Rain since
9am
mm
Weather Cloud Vis
km
Sea
Height
m
Swell
Dir  Spd
kts
Gust
kts
hPa Trend Height
m
Period
s
Dir
08/02:00pm 14.2 W 27 43 999.9 - 0.4 - - - - - - -
08/01:30pm 14.2 W 22 35 999.3 - 0.2 - - - - - - -
08/01:04pm 15.6 W 27 45 998.9 - 0.0 - - - - - - -
08/01:03pm 15.6 W 28 45 998.9 - 0.0 - - - - - - -
08/01:00pm 15.6 W 31 45 998.7 - 0.0 - - - - - - -
08/12:30pm 15.8 W 32 44 998.5 - 0.0 - - - - - - -
08/12:00pm 15.1 W 29 45 998.2 - 0.0 - - - - - - -
08/11:30am 15.7 W 31 42 997.9 - 0.0 - - - - - - -
08/11:00am 15.6 WNW 29 39 997.6 - 0.0 - - - - - - -
08/10:30am 15.5 WNW 31 42 997.1 - 0.0 - - - - - - -
08/10:00am 15.7 WNW 29 39 996.9 - 0.0 - - - - - - -
08/09:30am 15.8 WNW 33 43 996.2 - 0.0 - - - - - - -
08/09:00am 15.1 WNW 33 47 995.9 - 0.0 - - - - - - -
08/08:32am 14.3 WNW 29 39 995.8 - 0.0 - - - - - - -
08/08:30am 14.5 WNW 29 37 995.9 - 5.4 - - - - - - -
08/08:00am 15.1 WNW 30 41 995.6 - 5.4 - - - - - - -
08/07:30am 14.4 WNW 28 39 995.5 - 5.4 - - - - - - -
08/07:00am 14.2 WNW 30 46 995.2 - 5.4 - - - - - - -
08/06:30am 14.0 WNW 30 41 994.4 - 5.4 - - - - - - -
08/06:00am 14.6 WNW 28 38 993.8 - 5.4 - - - - - - -
08/05:30am 14.8 WNW 28 39 993.3 - 5.2 Recent precip. - - - - - -
08/05:00am 16.6 WNW 26 42 992.5 - 4.6 - - - - - - -
08/04:52am 17.6 NW 25 42 992.2 - 4.2 - - - - - - -
08/04:30am 18.4 NNW 21 35 991.7 - 3.8 - - - - - - -
08/04:00am 17.4 N 19 32 991.5 - 3.8 - - - - - - -
08/03:30am 17.4 N 21 31 992.9 - 3.8 - - - - - - -
08/03:00am 18.0 N 17 29 992.7 - 1.4 - - - - - - -
08/02:30am 18.5 N 19 32 993.3 - 1.0 Recent precip. - - - - - -
08/02:01am 18.6 N 15 26 994.5 - 0.8 - - - - - - -
08/02:00am 18.7 N 14 26 994.6 - 0.8 - - - - - - -
08/01:30am 18.9 N 18 30 993.7 - 0.2 - - - - - - -
08/01:00am 20.1 N 16 28 994.6 - 0.0 - - - - - - -
08/12:59am 20.1 N 16 28 994.6 - 0.0 - - - - - - -
08/12:30am 19.6 NNE 13 23 995.6 - 0.0 - - - - - - -
08/12:00am 17.3 NNE 11 15 996.9 - 0.0 - - - - - - -
 
Date/Time
CDT
Temp
°C
Wind Pressure Rain since
9am
mm
Weather Cloud Vis
km
Sea
Height
m
Swell
Dir  Spd
kts
Gust
kts
hPa Trend Height
m
Period
s
Dir
07/11:30pm 17.8 NNE 7 10 998.7 - 0.0 - - - - - - -
07/11:00pm 17.1 NE 8 11 999.1 - 0.0 - - - - - - -
07/10:30pm 16.9 NNE 8 11 1000.2 - 0.0 - - - - - - -
07/10:00pm 16.5 NNE 8 12 1001.1 - 0.0 - - - - - - -
07/09:30pm 16.2 NE 9 11 1002.1 - 0.0 - - - - - - -
07/09:00pm 16.1 NE 12 15 1002.7 - 0.0 - - - - - - -
07/08:30pm 15.8 ENE 14 17 1003.6 - 0.0 - - - - - - -
07/08:00pm 16.4 E 12 16 1004.0 - 0.0 - - - - - - -
07/07:30pm 16.4 E 13 17 1004.3 - 0.0 - - - - - - -
07/07:00pm 17.2 E 14 18 1005.0 - 0.0 - - - - - - -
07/06:30pm 18.0 E 13 16 1005.5 - 0.0 - - - - - - -
07/06:00pm 18.3 E 13 15 1006.0 - 0.0 - - - - - - -
07/05:30pm 18.5 E 11 14 1006.6 - 0.0 - - - - - - -
07/05:00pm 19.2 ESE 7 9 1007.5 - 0.0 - - - - - - -
07/04:30pm 19.6 ESE 7 9 1007.9 - 0.0 - - - - - - -
07/04:00pm 19.2 SE 8 11 1008.9 - 0.0 - - - - - - -
07/03:30pm 19.3 SSE 8 10 1009.4 - 0.0 - - - - - - -
07/03:00pm 19.4 SSE 8 11 1010.1 - 0.0 - - - - - - -
07/02:30pm 18.8 S 9 10 1010.8 - 0.0 - - - - - - -
07/02:00pm 19.3 S 7 10 1011.1 - 0.0 - - - - - - -
07/01:30pm 19.0 SSW 8 10 1011.6 - 0.0 - - - - - - -
07/01:00pm 19.5 SSW 7 9 1012.3 - 0.0 - - - - - - -
07/12:30pm 19.3 S 7 8 1012.8 - 0.0 - - - - - - -
07/12:00pm 19.2 SSW 6 8 1013.2 - 0.0 - - - - - - -
07/11:30am 18.6 S 6 7 1013.7 - 0.0 - - - - - - -
07/11:00am 18.5 SSW 5 6 1013.8 - 0.0 - - - - - - -
07/10:30am 17.7 SSW 5 7 1013.9 - 0.0 - - - - - - -
07/10:00am 17.1 SW 5 7 1014.1 - 0.0 - - - - - - -
07/09:30am 16.9 W 7 9 1014.2 - 0.0 - - - - - - -
07/09:00am 16.7 WNW 6 9 1014.3 - 0.0 - - - - - - -
07/08:30am 16.8 NW 7 9 1014.3 - 0.0 - - - - - - -
07/08:00am 15.8 NW 6 8 1014.5 - 0.0 - - - - - - -
07/07:30am 14.7 NNW 6 8 1014.3 - 0.0 - - - - - - -
07/07:00am 13.2 NW 7 10 1014.4 - 0.0 - - - - - - -
07/06:30am 12.1 NW 7 9 1014.3 - 0.0 - - - - - - -
07/06:00am 10.3 NNW 7 8 1014.3 - 0.0 - - - - - - -
07/05:30am 10.3 NNW 6 9 1014.2 - 0.0 - - - - - - -
07/05:00am 10.7 NW 7 9 1014.2 - 0.0 - - - - - - -
07/04:30am 11.0 NNW 7 8 1014.0 - 0.0 - - - - - - -
07/04:00am 11.0 NW 7 8 1013.8 - 0.0 - - - - - - -
07/03:30am 11.2 NNW 7 8 1013.7 - 0.0 - - - - - - -
07/03:00am 11.5 NNW 6 7 1013.8 - 0.0 - - - - - - -
07/02:30am 12.2 NNW 6 7 1014.2 - 0.0 - - - - - - -
07/02:00am 13.4 WNW 7 10 1014.4 - 0.0 - - - - - - -
07/01:30am 14.0 WNW 9 12 1014.7 - 0.0 - - - - - - -
07/01:00am 14.1 WNW 9 13 1014.9 - 0.0 - - - - - - -
07/12:30am 13.9 WNW 9 11 1015.1 - 0.0 - - - - - - -
07/12:00am 13.8 WNW 8 10 1015.2 - 0.0 - - - - - - -
 
Date/Time
CDT
Temp
°C
Wind Pressure Rain since
9am
mm
Weather Cloud Vis
km
Sea
Height
m
Swell
Dir  Spd
kts
Gust
kts
hPa Trend Height
m
Period
s
Dir
06/11:30pm 14.0 WNW 9 11 1015.5 - 0.0 - - - - - - -
06/11:00pm 13.4 WNW 7 9 1015.5 - 0.0 - - - - - - -
06/10:30pm 13.9 WNW 8 10 1015.8 - 0.0 - - - - - - -
06/10:00pm 14.3 W 7 10 1015.7 - 0.0 - - - - - - -
06/09:30pm 14.4 W 7 11 1015.8 - 0.0 - - - - - - -
06/09:00pm 14.4 W 8 11 1015.7 - 0.0 - - - - - - -
06/08:30pm 14.4 W 6 9 1015.7 - 0.0 - - - - - - -
06/08:00pm 14.7 W 8 12 1015.7 - 0.0 - - - - - - -
06/07:30pm 15.1 W 10 13 1015.6 - 0.0 - - - - - - -
06/07:00pm 15.9 WNW 10 13 1015.2 - 0.0 - - - - - - -
06/06:30pm 16.2 W 9 13 1015.0 - 0.0 - - - - - - -
06/06:00pm 16.5 W 9 13 1014.8 - 0.0 - - - - - - -
06/05:30pm 16.8 W 9 13 1015.0 - 0.0 - - - - - - -
06/05:00pm 15.9 W 12 16 1015.2 - 0.0 - - - - - - -
06/04:30pm 16.1 W 12 18 1015.2 - 0.0 - - - - - - -
06/04:00pm 16.2 W 11 16 1015.2 - 0.0 - - - - - - -
06/03:30pm 15.9 W 11 15 1015.0 - 0.0 - - - - - - -
06/03:00pm 16.1 W 10 16 1014.9 - 0.0 - - - - - - -
06/02:30pm 15.7 W 13 16 1015.2 - 0.0 - - - - - - -
06/02:00pm 15.3 W 13 16 1015.2 - 0.0 - - - - - - -
06/01:30pm 15.3 W 12 15 1015.4 - 0.0 - - - - - - -
06/01:00pm 15.7 W 13 16 1015.6 - 0.0 - - - - - - -
06/12:30pm 15.7 W 12 17 1015.6 - 0.0 - - - - - - -
06/12:00pm 16.7 W 9 14 1015.7 - 0.0 - - - - - - -
06/11:30am 16.6 W 10 15 1015.7 - 0.0 - - - - - - -
06/11:00am 16.1 W 9 12 1015.7 - 0.0 - - - - - - -
06/10:30am 15.4 W 8 11 1015.5 - 0.0 - - - - - - -
06/10:00am 15.2 W 7 12 1015.4 - 0.0 - - - - - - -
06/09:30am 15.0 W 8 10 1015.6 - 0.0 - - - - - - -
06/09:00am 15.8 NW 4 10 1015.2 - 0.0 - - - - - - -
06/08:30am 14.7 WNW 6 10 1015.1 - 0.2 - - - - - - -
06/08:00am 15.3 NNW 5 9 1014.6 - 0.2 - - - - - - -
06/07:30am 14.2 NNE 6 9 1014.3 - 0.2 - - - - - - -
06/07:00am 13.6 NW 6 10 1013.9 - 0.2 - - - - - - -
06/06:30am 13.2 WNW 7 10 1014.0 - 0.2 - - - - - - -
06/06:00am 13.2 NNE 7 13 1013.6 - 0.2 - - - - - - -
06/05:30am 13.0 SE 7 11 1013.2 - 0.2 - - - - - - -
06/05:00am 13.0 NW 6 10 1013.3 - 0.2 - - - - - - -
06/04:30am 12.7 N 5 11 1013.2 - 0.2 - - - - - - -
06/04:00am 12.8 WNW 8 14 1013.5 - 0.2 - - - - - - -
06/03:30am 10.3 WNW 6 11 1013.3 - 0.2 - - - - - - -
06/03:00am 8.5 NW 4 5 1013.1 - 0.2 - - - - - - -
06/02:30am 7.6 NW 4 5 1013.0 - 0.2 - - - - - - -
06/02:00am 7.5 WNW 3 4 1013.2 - 0.2 - - - - - - -
06/01:30am 7.3 NNW 4 4 1013.4 - 0.2 - - - - - - -
06/01:00am 7.9 S 1 4 1013.7 - 0.2 - - - - - - -
06/12:30am 8.0 CALM 0 0 1013.8 - 0.2 - - - - - - -
06/12:00am 8.4 CALM 0 0 1014.3 - 0.2 - - - - - - -
 
Date/Time
CDT
Temp
°C
Wind Pressure Rain since
9am
mm
Weather Cloud Vis
km
Sea
Height
m
Swell
Dir  Spd
kts
Gust
kts
hPa Trend Height
m
Period
s
Dir
05/11:30pm 8.8 CALM 0 3 1014.7 - 0.2 - - - - - - -
05/11:00pm 9.9 CALM 0 0 1014.6 - 0.2 - - - - - - -
05/10:30pm 12.2 SSE 4 6 1014.4 - 0.2 - - - - - - -
05/10:00pm 12.7 SSE 6 8 1014.4 - 0.2 - - - - - - -
05/09:30pm 12.9 S 6 10 1014.1 - 0.2 - - - - - - -
05/09:00pm 13.0 S 6 8 1014.3 - 0.2 - - - - - - -
05/08:30pm 13.4 S 6 8 1014.8 - 0.2 - - - - - - -
05/08:00pm 13.6 S 6 8 1015.0 - 0.2 - - - - - - -
05/07:30pm 14.6 S 6 8 1014.7 - 0.2 - - - - - - -
05/07:00pm 14.2 S 6 9 1014.2 - 0.2 - - - - - - -
05/06:30pm 15.4 S 8 11 1013.9 - 0.2 - - - - - - -
05/06:00pm 14.7 S 8 12 1014.0 - 0.2 - - - - - - -
05/05:30pm 15.3 E 6 11 1014.4 - 0.2 - - - - - - -
05/05:00pm 16.0 NNE 5 7 1014.4 - 0.2 - - - - - - -
05/04:30pm 16.7 NE 5 9 1014.2 - 0.2 - - - - - - -
05/04:00pm 16.5 SE 6 11 1013.6 - 0.2 - - - - - - -
05/03:30pm 16.3 NE 5 8 1013.8 - 0.2 - - - - - - -
05/03:00pm 16.5 SE 5 10 1014.3 - 0.2 - - - - - - -
05/02:30pm 17.3 ESE 7 11 1014.1 - 0.2 - - - - - - -

Other Formats:

Comma delimited format used in spreadsheet applications
http://www.bom.gov.au/fwo/IDS60701/IDS60701.94826.axf

JavaScript Object Notation format (JSON) in row-major order
http://www.bom.gov.au/fwo/IDS60701/IDS60701.94826.json